createdAt,value
2022-08-25T00:00:30.868Z,20.70
2022-08-25T00:03:13.901Z,17.40
2022-08-25T00:05:43.117Z,19.80
2022-08-25T00:08:11.877Z,19.00
2022-08-25T00:10:41.861Z,17.70
2022-08-25T00:13:10.805Z,18.00
2022-08-25T00:15:39.376Z,18.80
2022-08-25T00:18:19.980Z,14.70
2022-08-25T00:20:49.323Z,10.00
2022-08-25T00:23:18.417Z,12.60
2022-08-25T00:25:47.262Z,11.40
2022-08-25T00:28:16.348Z,10.10
2022-08-25T00:30:45.602Z,10.80
2022-08-25T00:33:14.425Z,9.40
2022-08-25T00:35:43.611Z,9.50
2022-08-25T00:38:13.421Z,11.00
2022-08-25T00:40:43.441Z,10.70
2022-08-25T00:43:13.304Z,9.90
2022-08-25T00:45:42.145Z,13.20
2022-08-25T00:48:10.924Z,9.60
2022-08-25T00:50:39.867Z,13.50
2022-08-25T00:53:09.247Z,11.70
2022-08-25T00:55:41.600Z,13.10
2022-08-25T00:58:17.890Z,18.20
2022-08-25T01:00:49.214Z,11.70
2022-08-25T01:03:19.260Z,11.90
2022-08-25T01:05:49.195Z,13.50
2022-08-25T01:08:20.538Z,15.50
2022-08-25T01:10:50.413Z,15.20
2022-08-25T01:13:26.118Z,13.40
2022-08-25T01:15:56.499Z,12.20
2022-08-25T01:18:26.697Z,16.90
2022-08-25T01:20:57.016Z,14.00
2022-08-25T01:23:26.273Z,13.90
2022-08-25T01:26:01.843Z,11.60
2022-08-25T01:28:30.759Z,14.40
2022-08-25T01:30:59.837Z,9.50
2022-08-25T01:33:28.838Z,11.50
2022-08-25T01:35:57.282Z,10.90
2022-08-25T01:38:26.084Z,10.80
2022-08-25T01:40:54.830Z,14.00
2022-08-25T01:43:36.324Z,19.80
2022-08-25T01:46:05.423Z,15.40
2022-08-25T01:48:34.172Z,15.50
2022-08-25T01:51:02.917Z,15.70
2022-08-25T01:53:33.676Z,17.50
2022-08-25T01:56:11.091Z,18.00
2022-08-25T01:58:43.599Z,15.50
2022-08-25T02:01:15.400Z,17.10
2022-08-25T02:03:47.178Z,13.10
2022-08-25T02:06:21.733Z,16.10
2022-08-25T02:09:01.066Z,16.70
2022-08-25T02:11:30.893Z,16.70
2022-08-25T02:14:00.387Z,15.10
2022-08-25T02:16:31.553Z,13.60
2022-08-25T02:19:00.613Z,16.20
2022-08-25T02:21:29.813Z,15.10
2022-08-25T02:23:58.846Z,15.10
2022-08-25T02:26:28.720Z,15.80
2022-08-25T02:28:57.430Z,17.40
2022-08-25T02:31:26.386Z,13.90
2022-08-25T02:33:55.069Z,19.20
2022-08-25T02:36:26.302Z,16.00
2022-08-25T02:38:55.096Z,14.80
2022-08-25T02:41:28.855Z,15.00
2022-08-25T02:44:02.007Z,16.90
2022-08-25T02:46:30.979Z,17.50
2022-08-25T02:48:59.527Z,16.40
2022-08-25T02:51:29.416Z,14.20
2022-08-25T02:53:59.059Z,19.00
2022-08-25T02:56:28.509Z,14.30
2022-08-25T02:58:57.670Z,15.00
2022-08-25T03:01:28.794Z,12.80
2022-08-25T03:03:58.273Z,10.50
2022-08-25T03:06:27.478Z,16.10
2022-08-25T03:08:56.623Z,16.90
2022-08-25T03:11:27.596Z,12.30
2022-08-25T03:13:56.374Z,9.50
2022-08-25T03:16:27.704Z,17.70
2022-08-25T03:21:25.059Z,11.30
2022-08-25T03:23:53.793Z,14.90
2022-08-25T03:26:55.588Z,14.70
2022-08-25T03:29:29.078Z,16.60
2022-08-25T03:31:59.175Z,15.50
2022-08-25T03:34:58.452Z,14.70
2022-08-25T03:37:27.056Z,15.60
2022-08-25T03:39:56.101Z,15.20
2022-08-25T03:42:25.838Z,14.20
2022-08-25T03:44:55.427Z,13.40
2022-08-25T03:47:25.785Z,16.00
2022-08-25T03:49:54.590Z,13.50
2022-08-25T03:52:23.338Z,13.10
2022-08-25T03:54:52.436Z,13.20
2022-08-25T03:57:21.027Z,13.70
2022-08-25T03:59:49.882Z,17.90
2022-08-25T04:02:18.723Z,12.60
2022-08-25T04:04:47.660Z,13.10
2022-08-25T04:07:17.105Z,16.30
2022-08-25T04:09:45.964Z,16.50
2022-08-25T04:12:14.494Z,15.50
2022-08-25T04:14:43.437Z,13.60
2022-08-25T04:17:12.048Z,13.60
2022-08-25T04:19:40.705Z,18.30
2022-08-25T04:22:09.359Z,14.50
2022-08-25T04:24:38.213Z,11.60
2022-08-25T04:27:06.956Z,12.90
2022-08-25T04:29:35.813Z,17.20
2022-08-25T04:32:05.093Z,15.00
2022-08-25T04:34:33.778Z,14.30
2022-08-25T04:37:05.676Z,13.50
2022-08-25T04:42:02.584Z,16.90
2022-08-25T04:44:33.588Z,14.50
2022-08-25T04:47:02.777Z,15.50
2022-08-25T04:49:31.623Z,14.10
2022-08-25T04:52:00.736Z,12.00
2022-08-25T04:54:29.572Z,12.10
2022-08-25T04:57:06.223Z,11.60
2022-08-25T04:59:37.619Z,12.90
2022-08-25T05:02:06.567Z,16.30
2022-08-25T05:04:37.127Z,12.60
2022-08-25T05:07:06.672Z,16.30
2022-08-25T05:09:37.094Z,13.10
2022-08-25T05:12:06.856Z,13.10
2022-08-25T05:14:35.664Z,11.90
2022-08-25T05:17:04.353Z,15.40
2022-08-25T05:19:33.569Z,12.90
2022-08-25T05:22:02.599Z,14.10
2022-08-25T05:24:31.230Z,14.40
2022-08-25T05:27:00.255Z,18.40
2022-08-25T05:29:29.138Z,18.70
2022-08-25T05:31:58.223Z,12.40
2022-08-25T05:34:26.652Z,20.20
2022-08-25T05:36:59.602Z,14.20
2022-08-25T05:39:31.777Z,18.10
2022-08-25T05:42:00.449Z,18.10
2022-08-25T05:44:30.840Z,17.40
2022-08-25T05:47:04.157Z,21.70
2022-08-25T05:49:32.714Z,28.50
2022-08-25T05:52:01.441Z,23.00
2022-08-25T05:54:31.071Z,20.20
2022-08-25T05:56:59.946Z,18.90
2022-08-25T05:59:29.586Z,22.80
2022-08-25T06:02:16.650Z,18.80
2022-08-25T06:04:45.749Z,22.00
2022-08-25T06:07:14.522Z,15.30
2022-08-25T06:09:45.847Z,16.40
2022-08-25T06:12:14.931Z,15.50
2022-08-25T06:14:44.586Z,13.70
2022-08-25T06:17:13.083Z,19.80
2022-08-25T06:19:41.777Z,17.40
2022-08-25T06:22:10.878Z,18.70
2022-08-25T06:24:39.508Z,20.00
2022-08-25T06:27:08.447Z,24.90
2022-08-25T06:29:37.048Z,21.20
2022-08-25T06:32:07.274Z,15.50
2022-08-25T06:34:36.034Z,21.30
2022-08-25T06:37:05.045Z,21.50
2022-08-25T06:39:33.865Z,24.20
2022-08-25T06:42:02.581Z,24.80
2022-08-25T06:44:31.780Z,18.60
2022-08-25T06:47:00.743Z,18.40
2022-08-25T06:49:31.914Z,19.30
2022-08-25T06:52:02.123Z,16.30
2022-08-25T06:54:30.908Z,24.20
2022-08-25T06:57:00.141Z,24.70
2022-08-25T06:59:32.288Z,19.50
2022-08-25T07:02:03.177Z,23.70
2022-08-25T07:04:32.999Z,21.50
2022-08-25T07:07:02.174Z,22.30
2022-08-25T07:09:31.483Z,17.80
2022-08-25T07:12:01.959Z,18.60
2022-08-25T07:14:30.676Z,24.10
2022-08-25T07:16:59.406Z,28.50
2022-08-25T07:19:28.152Z,19.80
2022-08-25T07:21:56.641Z,21.60
2022-08-25T07:24:25.617Z,19.40
2022-08-25T07:26:54.432Z,20.60
2022-08-25T07:29:31.901Z,17.70
2022-08-25T07:32:03.513Z,23.30
2022-08-25T07:34:51.912Z,17.50
2022-08-25T07:40:14.927Z,19.00
2022-08-25T07:42:43.672Z,16.10
2022-08-25T07:45:13.915Z,18.10
2022-08-25T07:47:45.784Z,18.20
2022-08-25T07:50:14.735Z,15.70
2022-08-25T07:52:43.290Z,17.70
2022-08-25T07:55:12.442Z,17.60
2022-08-25T07:57:49.865Z,19.40
2022-08-25T08:00:26.890Z,17.80
2022-08-25T08:02:56.046Z,21.80
2022-08-25T08:05:27.697Z,21.80
2022-08-25T08:13:18.012Z,18.80
2022-08-25T08:15:47.855Z,15.50
2022-08-25T08:18:16.637Z,16.30
2022-08-25T08:20:46.462Z,15.10
2022-08-25T08:23:15.826Z,24.90
2022-08-25T08:25:44.446Z,15.10
2022-08-25T08:28:13.672Z,17.30
2022-08-25T08:30:53.387Z,19.40
2022-08-25T08:33:25.991Z,20.00
2022-08-25T08:36:05.284Z,17.00
2022-08-25T08:38:35.078Z,20.30
2022-08-25T08:42:07.697Z,14.60
2022-08-25T08:44:49.850Z,19.20
2022-08-25T08:47:31.138Z,18.80
2022-08-25T08:52:52.517Z,12.50
2022-08-25T08:55:28.133Z,19.90
2022-08-25T08:58:00.551Z,21.90
2022-08-25T09:00:31.271Z,12.80
2022-08-25T09:03:05.143Z,23.70
2022-08-25T09:05:46.780Z,12.40
2022-08-25T09:08:20.516Z,18.20
2022-08-25T09:11:01.817Z,21.80
2022-08-25T09:13:45.591Z,20.10
2022-08-25T09:16:38.446Z,18.40
2022-08-25T09:19:24.533Z,20.30
2022-08-25T09:21:57.860Z,14.50
2022-08-25T09:24:45.238Z,15.30
2022-08-25T09:27:24.165Z,20.90
2022-08-25T09:30:05.517Z,21.20
2022-08-25T09:32:39.102Z,19.00
2022-08-25T09:35:15.086Z,17.70
2022-08-25T09:37:54.640Z,17.30
2022-08-25T09:40:23.958Z,20.30
2022-08-25T09:42:57.880Z,15.30
2022-08-25T09:45:40.131Z,18.60
2022-08-25T09:48:26.909Z,14.50
2022-08-25T09:51:01.809Z,20.70
2022-08-25T09:53:33.818Z,23.50
2022-08-25T09:56:06.910Z,14.70
2022-08-25T09:58:35.422Z,20.30
2022-08-25T10:01:14.053Z,15.70
2022-08-25T10:03:59.593Z,26.50
2022-08-25T10:06:34.013Z,19.90
2022-08-25T10:09:07.061Z,17.80
2022-08-25T10:11:41.617Z,15.70
2022-08-25T10:14:27.367Z,23.80
2022-08-25T10:17:14.359Z,20.30
2022-08-25T10:19:43.404Z,23.70
2022-08-25T10:22:20.759Z,19.60
2022-08-25T10:24:49.644Z,16.50
2022-08-25T10:27:30.893Z,24.50
2022-08-25T10:33:02.834Z,23.80
2022-08-25T10:35:39.462Z,18.30
2022-08-25T10:38:27.274Z,25.30
2022-08-25T10:41:09.414Z,25.50
2022-08-25T10:43:45.516Z,20.90
2022-08-25T10:46:27.466Z,27.40
2022-08-25T10:49:13.189Z,22.80
2022-08-25T10:52:00.488Z,21.80
2022-08-25T10:54:46.532Z,21.10
2022-08-25T10:57:22.024Z,18.60
2022-08-25T11:00:00.569Z,20.40
2022-08-25T11:03:11.171Z,20.30
2022-08-25T11:05:46.004Z,18.60
2022-08-25T11:08:24.984Z,18.00
2022-08-25T11:10:59.859Z,21.40
2022-08-25T11:13:37.405Z,17.40
2022-08-25T11:16:17.621Z,22.30
2022-08-25T11:18:53.118Z,19.40
2022-08-25T11:21:26.897Z,24.30
2022-08-25T11:24:05.139Z,28.10
2022-08-25T11:26:37.747Z,25.40
2022-08-25T11:29:16.035Z,23.20
2022-08-25T11:31:52.833Z,30.80
2022-08-25T11:34:22.838Z,27.50
2022-08-25T11:36:57.005Z,30.50
2022-08-25T11:39:40.214Z,31.10
2022-08-25T11:42:25.893Z,30.00
2022-08-25T11:45:08.603Z,29.80
2022-08-25T11:48:09.543Z,22.00
2022-08-25T11:50:57.757Z,32.50
2022-08-25T11:53:28.984Z,27.20
2022-08-25T11:56:03.730Z,25.70
2022-08-25T11:58:38.097Z,23.30
2022-08-25T12:01:11.303Z,29.40
2022-08-25T12:04:14.836Z,29.00
2022-08-25T12:07:18.377Z,26.60
2022-08-25T12:10:24.906Z,29.20
2022-08-25T12:13:37.422Z,30.60
2022-08-25T12:16:07.103Z,23.70
2022-08-25T12:18:45.877Z,28.90
2022-08-25T12:21:29.976Z,21.90
2022-08-25T12:24:12.721Z,23.60
2022-08-25T12:26:51.363Z,28.40
2022-08-25T12:29:30.132Z,30.30
2022-08-25T12:32:22.641Z,31.40
2022-08-25T12:35:21.791Z,23.70
2022-08-25T12:38:03.981Z,27.10
2022-08-25T12:40:37.028Z,29.30
2022-08-25T12:43:09.781Z,31.10
2022-08-25T12:45:45.419Z,31.60
2022-08-25T12:49:04.321Z,30.40
2022-08-25T12:51:53.842Z,33.80
2022-08-25T12:54:32.422Z,32.50
2022-08-25T12:57:14.312Z,26.10
2022-08-25T12:59:49.630Z,34.60
2022-08-25T13:02:52.001Z,27.90
2022-08-25T13:05:47.326Z,25.60
2022-08-25T13:08:46.609Z,36.70
2022-08-25T13:11:30.736Z,27.70
2022-08-25T13:14:07.813Z,30.30
2022-08-25T13:16:39.082Z,33.40
2022-08-25T13:19:18.416Z,26.90
2022-08-25T13:21:48.405Z,37.80
2022-08-25T13:24:22.297Z,27.40
2022-08-25T13:26:55.203Z,22.30
2022-08-25T13:29:27.244Z,41.10
2022-08-25T13:31:59.350Z,28.40
2022-08-25T13:34:34.833Z,38.20
2022-08-25T13:37:27.655Z,28.90
2022-08-25T13:40:10.988Z,29.20
2022-08-25T13:42:42.515Z,26.60
2022-08-25T13:45:17.066Z,24.60
2022-08-25T13:47:47.668Z,33.60
2022-08-25T13:50:28.778Z,31.90
2022-08-25T13:52:59.707Z,41.30
2022-08-25T13:55:38.409Z,31.70
2022-08-25T13:58:24.809Z,28.80
2022-08-25T14:01:19.963Z,26.20
2022-08-25T14:04:17.514Z,23.30
2022-08-25T14:06:47.594Z,36.20
2022-08-25T14:09:27.987Z,30.50
2022-08-25T14:11:58.023Z,34.40
2022-08-25T14:14:35.377Z,29.50
2022-08-25T14:17:22.144Z,26.80
2022-08-25T14:20:00.304Z,29.10
2022-08-25T14:22:45.912Z,32.10
2022-08-25T14:25:15.456Z,28.70
2022-08-25T14:28:10.938Z,29.80
2022-08-25T14:30:52.273Z,24.80
2022-08-25T14:33:24.913Z,35.40
2022-08-25T14:35:57.682Z,26.60
2022-08-25T14:38:31.192Z,38.40
2022-08-25T14:41:00.730Z,34.20
2022-08-25T14:43:31.750Z,27.40
2022-08-25T14:46:03.236Z,28.30
2022-08-25T14:51:04.851Z,33.20
2022-08-25T14:53:34.637Z,29.80
2022-08-25T14:56:08.640Z,33.20
2022-08-25T14:58:50.968Z,30.60
2022-08-25T15:01:29.206Z,31.20
2022-08-25T15:04:07.349Z,24.80
2022-08-25T15:06:38.845Z,36.70
2022-08-25T15:09:10.780Z,27.70
2022-08-25T15:11:44.494Z,35.10
2022-08-25T15:14:15.738Z,31.70
2022-08-25T15:16:49.616Z,27.50
2022-08-25T15:19:20.445Z,34.40
2022-08-25T15:21:50.678Z,31.60
2022-08-25T15:24:22.440Z,25.50
2022-08-25T15:26:55.486Z,25.20
2022-08-25T15:29:26.733Z,32.10
2022-08-25T15:31:55.664Z,23.10
2022-08-25T15:34:24.542Z,24.60
2022-08-25T15:36:53.466Z,23.60
2022-08-25T15:39:22.372Z,32.20
2022-08-25T15:41:51.758Z,23.80
2022-08-25T15:44:21.295Z,25.10
2022-08-25T15:46:50.449Z,25.80
2022-08-25T15:49:23.107Z,24.60
2022-08-25T15:51:53.214Z,28.10
2022-08-25T15:54:26.843Z,23.70
2022-08-25T15:56:56.540Z,24.70
2022-08-25T15:59:26.350Z,28.40
2022-08-25T16:01:58.699Z,20.00
2022-08-25T16:04:28.773Z,28.80
2022-08-25T16:06:58.694Z,21.90
2022-08-25T16:09:27.220Z,19.30
2022-08-25T16:11:58.996Z,23.90
2022-08-25T16:14:31.331Z,23.90
2022-08-25T16:17:00.024Z,23.70
2022-08-25T16:19:29.236Z,23.80
2022-08-25T16:21:58.469Z,19.30
2022-08-25T16:24:28.463Z,28.00
2022-08-25T16:27:11.403Z,26.00
2022-08-25T16:29:42.211Z,26.80
2022-08-25T16:32:13.317Z,16.50
2022-08-25T16:37:11.030Z,18.60
2022-08-25T16:39:43.518Z,28.20
2022-08-25T16:42:12.513Z,25.50
2022-08-25T16:44:42.204Z,26.20
2022-08-25T16:47:13.975Z,21.30
2022-08-25T16:52:30.708Z,18.40
2022-08-25T16:55:15.911Z,31.50
2022-08-25T16:57:47.925Z,20.80
2022-08-25T17:02:45.826Z,18.90
2022-08-25T17:05:14.816Z,25.50
2022-08-25T17:08:03.691Z,25.00
2022-08-25T17:10:36.208Z,19.90
2022-08-25T17:13:05.625Z,18.80
2022-08-25T17:15:34.813Z,25.10
2022-08-25T17:18:04.665Z,15.90
2022-08-25T17:20:34.665Z,20.50
2022-08-25T17:23:12.103Z,20.00
2022-08-25T17:25:43.316Z,29.10
2022-08-25T17:28:12.980Z,23.80
2022-08-25T17:30:42.577Z,21.50
2022-08-25T17:33:11.507Z,19.20
2022-08-25T17:35:40.727Z,24.00
2022-08-25T17:38:10.560Z,20.00
2022-08-25T17:40:40.431Z,21.50
2022-08-25T17:43:09.848Z,21.00
2022-08-25T17:45:39.607Z,23.50
2022-08-25T17:48:09.074Z,29.10
2022-08-25T17:50:38.902Z,18.20
2022-08-25T17:53:09.291Z,20.40
2022-08-25T17:55:39.783Z,29.00
2022-08-25T17:58:16.095Z,26.40
2022-08-25T18:00:46.469Z,23.00
2022-08-25T18:03:15.236Z,15.30
2022-08-25T18:05:45.068Z,21.00
2022-08-25T18:08:15.807Z,17.90
2022-08-25T18:10:49.973Z,23.30
2022-08-25T18:13:19.459Z,19.60
2022-08-25T18:16:09.450Z,23.50
2022-08-25T18:18:39.316Z,23.10
2022-08-25T18:21:16.827Z,24.10
2022-08-25T18:23:58.436Z,29.10
2022-08-25T18:26:27.698Z,22.40
2022-08-25T18:29:05.959Z,26.80
2022-08-25T18:31:37.041Z,21.30
2022-08-25T18:34:10.347Z,22.40
2022-08-25T18:36:43.612Z,23.30
2022-08-25T18:39:34.904Z,24.00
2022-08-25T18:42:08.066Z,16.40
2022-08-25T18:44:36.800Z,20.40
2022-08-25T18:47:07.565Z,20.00
2022-08-25T18:49:36.850Z,23.70
2022-08-25T18:52:06.509Z,17.00
2022-08-25T18:57:39.935Z,25.00
2022-08-25T19:00:18.868Z,23.60
2022-08-25T19:03:18.972Z,26.60
2022-08-25T19:06:16.083Z,20.90
2022-08-25T19:12:46.593Z,20.20
2022-08-25T19:16:10.747Z,20.40
2022-08-25T19:18:54.022Z,18.80
2022-08-25T19:21:38.014Z,16.80
2022-08-25T19:24:08.954Z,19.40
2022-08-25T19:26:47.312Z,30.40
2022-08-25T19:29:23.215Z,18.20
2022-08-25T19:32:06.686Z,20.90
2022-08-25T19:34:42.114Z,18.40
2022-08-25T19:37:14.659Z,22.00
2022-08-25T19:39:53.008Z,21.00
2022-08-25T19:42:34.969Z,23.00
2022-08-25T19:45:15.425Z,18.60
2022-08-25T19:47:45.462Z,22.20
2022-08-25T19:50:16.920Z,18.30
2022-08-25T19:55:14.525Z,18.70
2022-08-25T19:57:43.841Z,17.20
2022-08-25T20:00:16.922Z,15.30
2022-08-25T20:02:46.986Z,20.00
2022-08-25T20:05:23.570Z,17.90
2022-08-25T20:07:54.099Z,17.30
2022-08-25T20:10:24.310Z,17.80
2022-08-25T20:12:55.541Z,24.00
2022-08-25T20:15:25.467Z,17.60
2022-08-25T20:17:56.561Z,20.40
2022-08-25T20:20:32.641Z,21.40
2022-08-25T20:23:21.837Z,19.30
2022-08-25T20:25:51.487Z,21.60
2022-08-25T20:28:20.233Z,18.30
2022-08-25T20:30:48.997Z,29.10
2022-08-25T20:33:22.823Z,24.70
2022-08-25T20:35:53.062Z,21.20
2022-08-25T20:38:21.785Z,20.60
2022-08-25T20:40:50.509Z,24.80
2022-08-25T20:43:20.775Z,20.60
2022-08-25T20:45:49.772Z,20.10
2022-08-25T20:48:18.411Z,24.40
2022-08-25T20:50:57.390Z,24.40
2022-08-25T20:53:26.848Z,20.40
2022-08-25T20:55:55.741Z,22.40
2022-08-25T20:58:24.133Z,19.30
2022-08-25T21:00:55.424Z,27.30
2022-08-25T21:03:24.731Z,24.60
2022-08-25T21:05:54.050Z,18.20
2022-08-25T21:08:23.752Z,24.40
2022-08-25T21:10:54.204Z,25.70
2022-08-25T21:13:22.930Z,22.20
2022-08-25T21:15:51.582Z,20.40
2022-08-25T21:18:20.547Z,21.50
2022-08-25T21:20:49.100Z,31.40
2022-08-25T21:23:17.680Z,24.20
2022-08-25T21:25:46.497Z,23.70
2022-08-25T21:28:15.174Z,21.20
2022-08-25T21:30:44.797Z,29.10
2022-08-25T21:33:16.061Z,23.00
2022-08-25T21:35:44.712Z,22.00
2022-08-25T21:38:15.902Z,21.50
2022-08-25T21:40:45.058Z,21.40
2022-08-25T21:43:13.812Z,19.60
2022-08-25T21:45:46.851Z,21.50
2022-08-25T21:48:16.101Z,20.60
2022-08-25T21:50:44.926Z,20.20
2022-08-25T21:53:13.717Z,18.80
2022-08-25T21:55:43.863Z,18.60
2022-08-25T21:58:12.532Z,21.10
2022-08-25T22:00:44.252Z,18.80
2022-08-25T22:04:02.396Z,16.80
2022-08-25T22:06:31.781Z,20.50
2022-08-25T22:09:00.890Z,20.60
2022-08-25T22:11:29.408Z,20.20
2022-08-25T22:14:06.055Z,22.30
2022-08-25T22:16:36.710Z,19.00
2022-08-25T22:19:07.672Z,17.30
2022-08-25T22:21:41.294Z,20.90
2022-08-25T22:24:10.517Z,23.10
2022-08-25T22:26:40.196Z,19.50
2022-08-25T22:29:09.351Z,21.00
2022-08-25T22:31:38.675Z,20.10
2022-08-25T22:34:07.920Z,18.60
2022-08-25T22:36:38.339Z,18.80
2022-08-25T22:41:36.552Z,16.10
2022-08-25T22:44:10.454Z,21.70
2022-08-25T22:46:39.034Z,18.40
2022-08-25T22:49:08.351Z,19.20
2022-08-25T22:51:37.311Z,16.00
2022-08-25T22:54:06.398Z,19.80
2022-08-25T22:56:39.158Z,20.20
2022-08-25T22:59:10.568Z,19.10
2022-08-25T23:04:08.863Z,19.60
2022-08-25T23:06:40.129Z,18.30
2022-08-25T23:09:10.232Z,15.60
2022-08-25T23:11:39.468Z,21.10
2022-08-25T23:14:10.428Z,23.30
2022-08-25T23:16:41.912Z,15.90
2022-08-25T23:19:13.788Z,17.80
2022-08-25T23:24:30.752Z,21.60
2022-08-25T23:27:01.488Z,22.90
2022-08-25T23:29:31.383Z,15.50
2022-08-25T23:32:00.154Z,16.20
2022-08-25T23:34:29.293Z,17.10
2022-08-25T23:36:58.405Z,17.00
2022-08-25T23:39:27.256Z,26.60
2022-08-25T23:41:55.950Z,16.20
2022-08-25T23:44:25.678Z,23.20
2022-08-25T23:46:54.902Z,22.00
2022-08-25T23:49:24.355Z,20.60
2022-08-25T23:51:55.038Z,22.00
2022-08-25T23:54:31.446Z,18.20
2022-08-25T23:57:00.451Z,24.40
2022-08-25T23:59:30.352Z,20.40
